createdAt,value
2023-04-16T00:02:15.397Z,101072.00
2023-04-16T00:12:15.956Z,101078.00
2023-04-16T00:22:15.959Z,101080.00
2023-04-16T00:32:16.258Z,101084.00
2023-04-16T00:42:16.884Z,101088.00
2023-04-16T00:52:16.884Z,101088.00
2023-04-16T01:02:17.296Z,101090.00
2023-04-16T01:12:17.942Z,101092.00
2023-04-16T01:22:18.220Z,101094.00
2023-04-16T01:32:18.162Z,101099.00
2023-04-16T01:42:20.394Z,101103.00
2023-04-16T01:52:21.269Z,101105.00
2023-04-16T02:02:23.141Z,101109.00
2023-04-16T02:12:23.149Z,101109.00
2023-04-16T02:22:23.575Z,101105.00
2023-04-16T02:32:24.336Z,101107.00
2023-04-16T02:42:25.618Z,101107.00
2023-04-16T02:52:26.125Z,101105.00
2023-04-16T03:02:26.827Z,101107.00
2023-04-16T03:12:27.088Z,101111.00
2023-04-16T03:22:27.144Z,101113.00
2023-04-16T03:32:27.218Z,101119.00
2023-04-16T03:42:27.307Z,101127.00
2023-04-16T03:52:28.961Z,101131.00
2023-04-16T04:02:29.590Z,101127.00
2023-04-16T04:12:30.345Z,101125.00
2023-04-16T04:22:30.458Z,101131.00
2023-04-16T04:32:30.530Z,101137.00
2023-04-16T04:42:31.409Z,101144.00
2023-04-16T04:52:31.451Z,101152.00
2023-04-16T05:02:31.471Z,101160.00
2023-04-16T05:12:32.227Z,101166.00
2023-04-16T05:22:32.245Z,101174.00
2023-04-16T05:32:32.374Z,101180.00
2023-04-16T05:42:32.348Z,101190.00
2023-04-16T05:52:32.321Z,101201.00
2023-04-16T06:02:32.593Z,101211.00
2023-04-16T06:12:33.274Z,101215.00
2023-04-16T06:22:33.345Z,101223.00
2023-04-16T06:32:33.367Z,101229.00
2023-04-16T06:42:33.411Z,101240.00
2023-04-16T06:52:33.401Z,101244.00
2023-04-16T07:02:33.581Z,101252.00
2023-04-16T07:12:34.415Z,101254.00
2023-04-16T07:22:34.396Z,101258.00
2023-04-16T07:32:34.681Z,101260.00
2023-04-16T07:42:35.517Z,101270.00
2023-04-16T07:52:35.420Z,101274.00
2023-04-16T08:02:35.637Z,101280.00
2023-04-16T08:12:35.644Z,101289.00
2023-04-16T08:22:36.199Z,101297.00
2023-04-16T08:32:36.519Z,101307.00
2023-04-16T08:42:40.289Z,101318.00
2023-04-16T08:52:40.484Z,101322.00
2023-04-16T09:02:40.968Z,101328.00
2023-04-16T09:12:41.781Z,101331.00
2023-04-16T09:22:41.608Z,101333.00
2023-04-16T09:32:44.786Z,101337.00
2023-04-16T09:42:44.611Z,101343.00
2023-04-16T09:52:44.938Z,101353.00
2023-04-16T10:02:44.771Z,101357.00
2023-04-16T10:12:44.590Z,101361.00
2023-04-16T10:22:44.719Z,101365.00
2023-04-16T10:32:44.787Z,101367.00
2023-04-16T10:42:44.680Z,101369.00
2023-04-16T10:52:44.765Z,101363.00
2023-04-16T11:02:45.015Z,101361.00
2023-04-16T11:12:45.795Z,101365.00
2023-04-16T11:22:46.182Z,101367.00
2023-04-16T11:32:46.937Z,101367.00
2023-04-16T11:42:46.851Z,101367.00
2023-04-16T11:52:46.786Z,101369.00
2023-04-16T12:02:47.376Z,101367.00
2023-04-16T12:12:47.949Z,101361.00
2023-04-16T12:22:48.899Z,101363.00
2023-04-16T12:32:48.857Z,101369.00
2023-04-16T12:42:48.886Z,101375.00
2023-04-16T12:52:48.852Z,101377.00
2023-04-16T13:02:49.023Z,101375.00
2023-04-16T13:12:49.061Z,101375.00
2023-04-16T13:22:49.904Z,101371.00
2023-04-16T13:32:50.086Z,101367.00
2023-04-16T13:42:49.909Z,101369.00
2023-04-16T13:52:50.011Z,101367.00
2023-04-16T14:02:50.257Z,101359.00
2023-04-16T14:12:50.949Z,101355.00
2023-04-16T14:22:51.340Z,101359.00
2023-04-16T14:32:51.135Z,101363.00
2023-04-16T14:42:51.051Z,101361.00
2023-04-16T14:52:51.311Z,101363.00
2023-04-16T15:02:51.221Z,101363.00
2023-04-16T15:12:51.153Z,101361.00
2023-04-16T15:22:51.034Z,101359.00
2023-04-16T15:32:51.199Z,101353.00
2023-04-16T15:42:51.217Z,101355.00
2023-04-16T15:52:51.511Z,101355.00
2023-04-16T16:02:52.388Z,101349.00
2023-04-16T16:12:53.276Z,101349.00
2023-04-16T16:22:53.208Z,101347.00
2023-04-16T16:32:53.372Z,101351.00
2023-04-16T16:42:53.224Z,101353.00
2023-04-16T16:52:53.129Z,101357.00
2023-04-16T17:02:53.309Z,101357.00
2023-04-16T17:12:53.273Z,101359.00
2023-04-16T17:22:53.314Z,101363.00
2023-04-16T17:32:53.234Z,101371.00
2023-04-16T17:42:53.275Z,101384.00
2023-04-16T17:52:53.247Z,101394.00
2023-04-16T18:02:53.755Z,101404.00
2023-04-16T18:12:54.363Z,101408.00
2023-04-16T18:22:54.385Z,101418.00
2023-04-16T18:33:10.570Z,101425.00
2023-04-16T18:42:56.660Z,101433.00
2023-04-16T18:52:56.418Z,101439.00
2023-04-16T19:02:56.681Z,101449.00
2023-04-16T19:12:57.622Z,101453.00
2023-04-16T19:22:57.777Z,101461.00
2023-04-16T19:32:58.622Z,101465.00
2023-04-16T19:42:59.640Z,101469.00
2023-04-16T19:52:59.419Z,101471.00
2023-04-16T20:02:59.537Z,101472.00
2023-04-16T20:12:59.555Z,101476.00
2023-04-16T20:22:59.517Z,101480.00
2023-04-16T20:32:59.549Z,101482.00
2023-04-16T20:42:59.810Z,101484.00
2023-04-16T20:52:59.452Z,101486.00
2023-04-16T21:02:59.622Z,101484.00
2023-04-16T21:12:59.496Z,101488.00
2023-04-16T21:22:59.965Z,101484.00
2023-04-16T21:33:00.563Z,101486.00
2023-04-16T21:43:00.531Z,101486.00
2023-04-16T21:53:02.474Z,101488.00
2023-04-16T22:03:03.812Z,101488.00
2023-04-16T22:13:03.566Z,101486.00
2023-04-16T22:23:03.641Z,101484.00
2023-04-16T22:33:03.722Z,101488.00
2023-04-16T22:43:03.599Z,101484.00
2023-04-16T22:53:03.723Z,101484.00
2023-04-16T23:03:06.769Z,101486.00
2023-04-16T23:13:06.662Z,101482.00
2023-04-16T23:23:06.817Z,101482.00
2023-04-16T23:33:17.044Z,101482.00
2023-04-16T23:43:16.718Z,101482.00
2023-04-16T23:53:16.852Z,101478.00
